Time;durP1;ratioP1;P1;durP2;ratioP2;P2;SDS_P1;SDS_P2;PMS_P1;PMS_P2;Temp;Humidity;BMP_temperature;BMP_pressure;BME280_temperature;BME280_humidity;BME280_pressure;Samples;Min_cycle;Max_cycle;Signal;HPM_P1;HPM_P2
2023/03/03 00:01:03;;;;;;;81.30;16.60;;;0.60;99.90;;;;;;5042860;28;20201;-56
2023/03/03 00:03:29;;;;;;;162.50;20.27;;;0.60;99.90;;;;;;5053706;28;20633;-51
2023/03/03 00:05:56;;;;;;;118.83;19.27;;;0.60;99.90;;;;;;5054113;28;20219;-55
2023/03/03 00:08:25;;;;;;;78.10;17.13;;;0.60;99.90;;;;;;5064288;28;20209;-54
2023/03/03 00:10:54;;;;;;;90.27;18.13;;;0.60;99.90;;;;;;5043692;28;20308;-52
2023/03/03 00:13:23;;;;;;;114.80;18.57;;;0.60;99.90;;;;;;5050630;28;20194;-52
2023/03/03 00:15:50;;;;;;;77.63;17.50;;;0.60;99.90;;;;;;5036921;28;20208;-56
2023/03/03 00:18:37;;;;;;;125.40;20.50;;;0.60;99.90;;;;;;5050325;28;20284;-53
2023/03/03 00:21:30;;;;;;;87.33;16.37;;;0.60;99.90;;;;;;5046366;28;20713;-52
2023/03/03 00:24:14;;;;;;;68.40;16.40;;;0.70;99.90;;;;;;5044591;28;20230;-52
2023/03/03 00:26:42;;;;;;;87.50;16.40;;;0.70;99.90;;;;;;5038391;28;20204;-53
2023/03/03 00:29:34;;;;;;;111.30;17.57;;;0.70;99.90;;;;;;5048770;28;20213;-55
2023/03/03 00:32:18;;;;;;;90.13;17.53;;;0.70;99.90;;;;;;5023061;28;20237;-50
2023/03/03 00:34:45;;;;;;;78.40;16.17;;;0.60;99.90;;;;;;5048537;28;20190;-54
2023/03/03 00:37:27;;;;;;;67.70;16.03;;;0.60;99.90;;;;;;5048209;28;20231;-53
2023/03/03 00:40:09;;;;;;;96.17;16.80;;;0.70;99.90;;;;;;5050419;28;20283;-54
2023/03/03 00:42:37;;;;;;;63.07;16.93;;;0.60;99.90;;;;;;5050935;28;20213;-54
2023/03/03 00:45:27;;;;;;;100.07;20.23;;;0.60;99.90;;;;;;5061312;28;20194;-53
2023/03/03 00:47:55;;;;;;;73.47;16.63;;;0.70;99.90;;;;;;5053186;28;20227;-56
2023/03/03 00:50:31;;;;;;;102.77;16.73;;;0.70;99.90;;;;;;5050097;28;20284;-52
2023/03/03 00:53:07;;;;;;;85.87;16.63;;;0.70;99.90;;;;;;5044412;28;20228;-53
2023/03/03 00:55:35;;;;;;;68.23;16.70;;;0.60;99.90;;;;;;5047807;28;20205;-54
2023/03/03 00:58:03;;;;;;;96.73;16.87;;;0.60;99.90;;;;;;5057908;28;20206;-55
2023/03/03 01:00:35;;;;;;;85.47;15.40;;;0.60;99.90;;;;;;5039321;28;21941;-53
2023/03/03 01:03:05;;;;;;;67.93;15.90;;;0.60;99.90;;;;;;5057932;28;20210;-56
2023/03/03 01:05:32;;;;;;;90.13;17.37;;;0.60;99.90;;;;;;5041320;28;20222;-53
2023/03/03 01:07:59;;;;;;;77.20;16.07;;;0.60;99.90;;;;;;5046537;28;20281;-56
2023/03/03 01:10:28;;;;;;;103.33;15.67;;;0.60;99.90;;;;;;5050891;28;20301;-51
2023/03/03 01:12:57;;;;;;;90.90;17.03;;;0.60;99.90;;;;;;5045249;28;20676;-54
2023/03/03 01:15:24;;;;;;;63.30;16.00;;;0.60;99.90;;;;;;5047558;28;20198;-54
2023/03/03 01:17:51;;;;;;;118.17;19.03;;;0.60;99.90;;;;;;5044122;28;20198;-55
2023/03/03 01:20:19;;;;;;;64.50;15.77;;;0.60;99.90;;;;;;5051680;28;20219;-54
2023/03/03 01:22:46;;;;;;;72.27;16.70;;;0.60;99.90;;;;;;5036954;28;20229;-55
2023/03/03 01:25:13;;;;;;;48.53;15.37;;;0.60;99.90;;;;;;5046306;28;20198;-52
2023/03/03 01:27:40;;;;;;;100.00;17.57;;;0.60;99.90;;;;;;5044009;28;20834;-53
2023/03/03 01:30:09;;;;;;;102.53;16.97;;;0.60;99.90;;;;;;5057168;28;20608;-54
2023/03/03 01:32:37;;;;;;;63.20;15.00;;;0.60;99.90;;;;;;5033295;28;20215;-53
2023/03/03 01:35:04;;;;;;;71.30;16.10;;;0.50;99.90;;;;;;5053889;28;20197;-51
2023/03/03 01:37:31;;;;;;;81.00;16.13;;;0.60;99.90;;;;;;5033663;28;23777;-51
2023/03/03 01:39:58;;;;;;;46.10;14.63;;;0.60;99.90;;;;;;5056346;28;20705;-56
2023/03/03 01:42:28;;;;;;;84.97;16.30;;;0.60;99.90;;;;;;5037066;28;20221;-55
2023/03/03 01:47:54;;;;;;;67.27;14.87;;;0.60;99.90;;;;;;5066566;27;20665;-52
2023/03/03 01:50:30;;;;;;;149.13;20.17;;;0.50;99.90;;;;;;5071025;28;20690;-52
2023/03/03 01:52:59;;;;;;;200.73;22.37;;;0.50;99.90;;;;;;5060665;28;20592;-50
2023/03/03 01:55:31;;;;;;;117.73;17.00;;;0.50;99.90;;;;;;5057433;28;20932;-52
2023/03/03 01:58:00;;;;;;;77.77;16.03;;;0.40;99.90;;;;;;5063557;28;20208;-52
2023/03/03 02:00:27;;;;;;;150.57;18.57;;;0.40;99.90;;;;;;5061748;28;20208;-54
2023/03/03 02:02:56;;;;;;;150.13;19.43;;;0.40;99.90;;;;;;5059199;28;20569;-53
2023/03/03 02:05:23;;;;;;;134.63;19.87;;;0.30;99.90;;;;;;5070559;28;20234;-49
2023/03/03 02:07:51;;;;;;;140.53;17.70;;;0.30;99.90;;;;;;5059053;28;20197;-54
2023/03/03 02:10:21;;;;;;;124.47;17.67;;;0.20;99.90;;;;;;5050641;28;20395;-55
2023/03/03 02:12:51;;;;;;;157.43;19.43;;;0.20;99.90;;;;;;5067408;28;20703;-55
2023/03/03 02:15:21;;;;;;;134.37;17.03;;;0.20;99.90;;;;;;5075895;28;20229;-54
2023/03/03 02:17:50;;;;;;;76.70;15.53;;;0.20;99.90;;;;;;5078039;28;20231;-50
2023/03/03 02:20:29;;;;;;;125.53;19.07;;;0.20;99.90;;;;;;5049662;28;20316;-50
2023/03/03 02:23:05;;;;;;;79.13;16.03;;;0.20;99.90;;;;;;5070130;28;20308;-51
2023/03/03 02:25:39;;;;;;;118.67;16.73;;;0.20;99.90;;;;;;5057979;28;20765;-51
2023/03/03 02:28:07;;;;;;;115.43;17.07;;;0.20;99.90;;;;;;5069371;28;20199;-49
2023/03/03 02:30:37;;;;;;;137.30;18.23;;;0.10;99.90;;;;;;5071485;28;20692;-50
2023/03/03 02:33:05;;;;;;;101.93;14.97;;;0.10;99.90;;;;;;5064662;28;20699;-50
2023/03/03 02:35:34;;;;;;;130.00;17.00;;;0.10;99.90;;;;;;5050183;28;20577;-52
2023/03/03 02:38:14;;;;;;;75.97;15.27;;;0.10;99.90;;;;;;5068172;28;20288;-52
2023/03/03 02:40:49;;;;;;;58.73;14.63;;;0.10;99.90;;;;;;5063756;28;20294;-54
2023/03/03 02:43:21;;;;;;;68.87;15.60;;;0.10;99.90;;;;;;5054167;28;20249;-50
2023/03/03 02:45:48;;;;;;;64.77;15.50;;;0.20;99.90;;;;;;5058362;28;20671;-51
2023/03/03 02:48:15;;;;;;;23.47;14.13;;;0.20;99.90;;;;;;5055941;28;20363;-48
2023/03/03 02:50:42;;;;;;;59.93;14.50;;;0.20;99.90;;;;;;5049663;28;20212;-49
2023/03/03 02:53:08;;;;;;;28.17;13.57;;;0.30;99.90;;;;;;5060947;28;20220;-52
2023/03/03 02:55:35;;;;;;;49.60;14.50;;;0.30;99.90;;;;;;5057544;28;20201;-49
2023/03/03 02:58:02;;;;;;;79.23;16.17;;;0.30;99.90;;;;;;5050945;28;20571;-52
2023/03/03 03:00:31;;;;;;;91.03;14.73;;;0.30;99.90;;;;;;5051320;28;20189;-53
2023/03/03 03:02:58;;;;;;;57.27;14.37;;;0.20;99.90;;;;;;5049608;28;20266;-53
2023/03/03 03:05:25;;;;;;;77.27;14.73;;;0.20;99.90;;;;;;5049055;28;20204;-52
2023/03/03 03:07:52;;;;;;;70.30;14.57;;;0.10;99.90;;;;;;5051859;28;20637;-53
2023/03/03 03:10:20;;;;;;;64.47;14.60;;;0.10;99.90;;;;;;5043823;28;20200;-51
2023/03/03 03:12:48;;;;;;;56.03;13.40;;;0.10;99.90;;;;;;5039907;28;20237;-49
2023/03/03 03:15:14;;;;;;;74.20;14.77;;;0.00;99.90;;;;;;5044276;28;20196;-51
2023/03/03 03:17:43;;;;;;;27.50;13.70;;;0.10;99.90;;;;;;5063124;28;20209;-51
2023/03/03 03:20:11;;;;;;;78.30;15.70;;;0.10;99.90;;;;;;5050111;28;20258;-49
2023/03/03 03:22:39;;;;;;;88.37;17.53;;;0.10;99.90;;;;;;5040279;28;20224;-52
2023/03/03 03:25:06;;;;;;;85.77;15.30;;;0.00;99.90;;;;;;5046380;28;20201;-51
2023/03/03 03:27:34;;;;;;;87.40;15.00;;;0.00;99.90;;;;;;5043756;28;20682;-50
2023/03/03 03:30:00;;;;;;;90.10;15.73;;;0.00;99.90;;;;;;5044597;28;20671;-51
2023/03/03 03:32:28;;;;;;;72.17;15.40;;;-0.10;99.90;;;;;;5051341;28;20212;-50
2023/03/03 03:34:57;;;;;;;51.77;14.17;;;-0.10;99.90;;;;;;5045879;28;20232;-52
2023/03/03 03:37:23;;;;;;;51.50;13.57;;;-0.10;99.90;;;;;;5032038;28;21031;-54
2023/03/03 03:39:51;;;;;;;43.70;13.93;;;-0.10;99.90;;;;;;5049185;28;20298;-49
2023/03/03 03:42:19;;;;;;;63.73;14.83;;;0.00;99.90;;;;;;5042776;28;20861;-55
2023/03/03 03:44:47;;;;;;;93.67;15.37;;;0.10;99.90;;;;;;5039933;28;20576;-49
2023/03/03 03:47:14;;;;;;;36.37;13.90;;;0.10;99.90;;;;;;5040275;28;20229;-54
2023/03/03 03:49:42;;;;;;;62.27;14.23;;;0.10;99.90;;;;;;5048194;28;20212;-50
2023/03/03 03:52:10;;;;;;;55.17;14.77;;;0.10;99.90;;;;;;5047658;28;20215;-50
2023/03/03 03:54:37;;;;;;;44.37;13.43;;;0.10;99.90;;;;;;5058253;28;20232;-53
2023/03/03 03:57:03;;;;;;;32.80;12.90;;;0.10;99.90;;;;;;5044962;28;20194;-53
2023/03/03 03:59:31;;;;;;;55.47;13.77;;;0.10;99.90;;;;;;5038736;28;20215;-50
2023/03/03 04:01:58;;;;;;;55.57;13.60;;;0.10;99.90;;;;;;5047095;28;20218;-52
2023/03/03 04:04:25;;;;;;;64.40;13.40;;;0.10;99.90;;;;;;5043595;28;20288;-51
2023/03/03 04:06:53;;;;;;;50.87;13.10;;;0.10;99.90;;;;;;5041806;28;20222;-53
2023/03/03 04:09:21;;;;;;;43.80;13.07;;;0.10;99.90;;;;;;5032200;28;20288;-52
2023/03/03 04:11:49;;;;;;;57.53;12.70;;;0.10;99.90;;;;;;5052966;28;20221;-54
2023/03/03 04:14:17;;;;;;;51.20;12.73;;;0.10;99.90;;;;;;5041216;28;20786;-52
2023/03/03 04:16:43;;;;;;;52.83;12.80;;;0.00;99.90;;;;;;5045511;28;20689;-54
2023/03/03 04:19:10;;;;;;;43.40;13.57;;;0.10;99.90;;;;;;5060185;28;20199;-50
2023/03/03 04:21:40;;;;;;;71.50;14.27;;;0.10;99.90;;;;;;5058561;28;20279;-55
2023/03/03 04:24:08;;;;;;;37.93;13.00;;;0.10;99.90;;;;;;5033318;28;20577;-49
2023/03/03 04:26:36;;;;;;;50.00;13.20;;;0.20;99.90;;;;;;5054013;28;20304;-50
2023/03/03 04:29:04;;;;;;;74.37;14.30;;;0.20;99.90;;;;;;5040114;28;20205;-52
2023/03/03 04:31:31;;;;;;;96.33;16.33;;;0.20;99.90;;;;;;5043031;28;20235;-51
2023/03/03 04:33:59;;;;;;;89.33;13.87;;;0.20;99.90;;;;;;5040986;28;20412;-50
2023/03/03 04:36:26;;;;;;;47.87;13.60;;;0.10;99.90;;;;;;5043354;28;20209;-52
2023/03/03 04:38:53;;;;;;;81.93;14.20;;;0.10;99.90;;;;;;5030723;28;20207;-51
2023/03/03 04:41:20;;;;;;;59.27;14.07;;;0.10;99.90;;;;;;5051248;28;20213;-49
2023/03/03 04:43:49;;;;;;;56.43;14.20;;;0.10;99.90;;;;;;5040934;28;20799;-50
2023/03/03 04:46:16;;;;;;;76.60;13.13;;;0.00;99.90;;;;;;5043717;28;20288;-49
2023/03/03 04:48:43;;;;;;;59.30;14.10;;;0.00;99.90;;;;;;5041918;28;20368;-50
2023/03/03 04:51:11;;;;;;;87.40;13.70;;;0.10;99.90;;;;;;5043079;28;20320;-53
2023/03/03 04:53:38;;;;;;;102.63;14.97;;;0.10;99.90;;;;;;5039327;28;20255;-49
2023/03/03 04:56:07;;;;;;;59.53;13.23;;;0.10;99.90;;;;;;5036564;28;20675;-50
2023/03/03 04:58:34;;;;;;;88.67;14.13;;;0.00;99.90;;;;;;5055052;28;20194;-51
2023/03/03 05:01:03;;;;;;;32.10;11.23;;;0.00;99.90;;;;;;5046145;28;20280;-53
2023/03/03 05:03:32;;;;;;;42.73;12.63;;;0.00;99.90;;;;;;5044018;28;20238;-49
2023/03/03 05:05:59;;;;;;;55.40;13.57;;;0.10;99.90;;;;;;5040314;28;20380;-55
2023/03/03 05:08:26;;;;;;;52.33;13.27;;;0.10;99.90;;;;;;5045595;28;20722;-52
2023/03/03 05:10:54;;;;;;;86.33;14.30;;;0.10;99.90;;;;;;5037451;28;20276;-51
2023/03/03 05:13:21;;;;;;;63.73;14.37;;;0.10;99.90;;;;;;5049164;28;20196;-51
2023/03/03 05:15:52;;;;;;;46.67;12.80;;;0.10;99.90;;;;;;5039997;28;20273;-53
2023/03/03 05:18:21;;;;;;;47.97;12.43;;;0.10;99.90;;;;;;5043278;28;20282;-53
2023/03/03 05:20:47;;;;;;;41.83;12.20;;;0.10;99.90;;;;;;5040542;28;20218;-51
2023/03/03 05:23:15;;;;;;;77.43;13.50;;;0.20;99.90;;;;;;5039100;28;20291;-51
2023/03/03 05:25:43;;;;;;;50.77;12.90;;;0.20;99.90;;;;;;5030310;28;20206;-53
2023/03/03 05:28:10;;;;;;;64.70;13.23;;;0.10;99.90;;;;;;5044403;28;20238;-51
2023/03/03 05:30:37;;;;;;;79.90;15.00;;;0.10;99.90;;;;;;5053312;28;20198;-51
2023/03/03 05:33:05;;;;;;;104.53;14.57;;;0.20;99.90;;;;;;5045875;28;20299;-56
2023/03/03 05:35:34;;;;;;;69.20;13.97;;;0.10;99.90;;;;;;5045130;28;20205;-51
2023/03/03 05:38:02;;;;;;;51.27;12.47;;;0.10;99.90;;;;;;5051586;28;20266;-53
2023/03/03 05:40:29;;;;;;;56.47;12.80;;;0.10;99.90;;;;;;5040588;28;20204;-51
2023/03/03 05:42:57;;;;;;;72.67;13.60;;;0.10;99.90;;;;;;5039785;28;20303;-50
2023/03/03 05:45:24;;;;;;;60.17;14.80;;;0.10;99.90;;;;;;5042095;28;20201;-52
2023/03/03 05:47:51;;;;;;;47.83;11.87;;;0.10;99.90;;;;;;5045548;28;20558;-52
2023/03/03 05:50:19;;;;;;;28.27;12.07;;;0.10;99.90;;;;;;5041347;28;20205;-53
2023/03/03 05:52:49;;;;;;;80.70;15.47;;;0.10;99.90;;;;;;5045087;28;20378;-51
2023/03/03 05:55:16;;;;;;;136.43;15.47;;;0.10;99.90;;;;;;5048250;28;20300;-52
2023/03/03 05:58:04;;;;;;;54.30;11.80;;;0.10;99.90;;;;;;5034187;28;20206;-52
2023/03/03 06:00:31;;;;;;;73.87;13.70;;;0.10;99.90;;;;;;5046798;28;20194;-52
2023/03/03 06:02:57;;;;;;;58.57;13.53;;;0.10;99.90;;;;;;5048410;28;20235;-53
2023/03/03 06:05:24;;;;;;;93.47;14.17;;;0.10;99.90;;;;;;5040997;28;20541;-52
2023/03/03 06:07:52;;;;;;;50.23;12.20;;;0.00;99.90;;;;;;5053807;28;20212;-53
2023/03/03 06:10:19;;;;;;;70.87;12.33;;;0.00;99.90;;;;;;5049876;28;20215;-54
2023/03/03 06:12:49;;;;;;;52.07;13.03;;;0.00;99.90;;;;;;5038508;28;20227;-50
2023/03/03 06:15:17;;;;;;;58.87;12.23;;;0.00;99.90;;;;;;5044054;28;20277;-53
2023/03/03 06:18:06;;;;;;;84.60;12.60;;;0.10;99.90;;;;;;5041776;28;20938;-51
2023/03/03 06:20:34;;;;;;;70.70;11.93;;;0.10;99.90;;;;;;5041898;28;20569;-52
2023/03/03 06:23:02;;;;;;;60.23;11.53;;;0.10;99.90;;;;;;5047728;28;20224;-50
2023/03/03 06:25:29;;;;;;;121.63;15.03;;;0.00;99.90;;;;;;5052517;28;20213;-55
2023/03/03 06:27:57;;;;;;;79.53;12.70;;;0.10;99.90;;;;;;5053128;28;20247;-53
2023/03/03 06:30:25;;;;;;;44.90;11.80;;;0.00;99.90;;;;;;5036133;28;20201;-51
2023/03/03 06:32:53;;;;;;;58.70;11.73;;;0.00;99.90;;;;;;5052353;28;20227;-52
2023/03/03 06:35:41;;;;;;;31.07;11.77;;;0.10;99.90;;;;;;5050317;28;20297;-49
2023/03/03 06:38:09;;;;;;;80.03;12.93;;;0.00;99.90;;;;;;5046851;28;20257;-52
2023/03/03 06:40:36;;;;;;;108.70;15.60;;;0.00;99.90;;;;;;5055696;28;20213;-51
2023/03/03 06:43:24;;;;;;;105.43;12.37;;;0.00;99.90;;;;;;5051612;28;20215;-49
2023/03/03 06:45:52;;;;;;;55.80;11.27;;;-0.10;99.90;;;;;;5035896;28;20223;-52
2023/03/03 06:48:19;;;;;;;40.43;11.03;;;-0.10;99.90;;;;;;5045473;28;20228;-53
2023/03/03 06:50:46;;;;;;;58.30;12.07;;;0.00;99.90;;;;;;5045628;28;20206;-52
2023/03/03 06:53:18;;;;;;;41.23;11.60;;;0.00;99.90;;;;;;5042381;28;20200;-51
2023/03/03 06:55:45;;;;;;;26.33;11.20;;;0.00;99.90;;;;;;5054186;28;20581;-50
2023/03/03 06:58:14;;;;;;;35.80;12.27;;;0.00;99.90;;;;;;5048266;28;20950;-52
2023/03/03 07:01:02;;;;;;;41.50;11.80;;;0.10;99.90;;;;;;5039157;28;20225;-53
2023/03/03 07:03:34;;;;;;;45.17;11.57;;;0.10;99.90;;;;;;5050724;28;20246;-53
2023/03/03 07:06:01;;;;;;;45.90;12.67;;;0.20;99.90;;;;;;5047573;28;21054;-49
2023/03/03 07:08:48;;;;;;;68.97;13.80;;;0.30;99.90;;;;;;5050974;28;20219;-53
2023/03/03 07:11:19;;;;;;;35.40;12.57;;;0.30;99.90;;;;;;5049069;28;20234;-49
2023/03/03 07:13:49;;;;;;;61.13;12.93;;;0.30;99.90;;;;;;5046622;28;20573;-52
2023/03/03 07:16:17;;;;;;;63.03;12.63;;;0.30;99.90;;;;;;5039352;28;20244;-51
2023/03/03 07:18:50;;;;;;;78.60;12.73;;;0.20;99.90;;;;;;5052112;28;20562;-54
2023/03/03 07:21:20;;;;;;;78.53;12.23;;;0.20;99.90;;;;;;5043280;28;20219;-52
2023/03/03 07:23:50;;;;;;;69.63;10.70;;;0.10;99.90;;;;;;5056324;28;20209;-52
2023/03/03 07:26:38;;;;;;;27.60;9.83;;;0.10;99.90;;;;;;5048731;28;20207;-52
2023/03/03 07:29:18;;;;;;;61.90;11.53;;;0.10;99.90;;;;;;5041535;28;20219;-52
2023/03/03 07:31:47;;;;;;;71.07;11.93;;;0.20;99.90;;;;;;5038613;28;20238;-47
2023/03/03 07:34:19;;;;;;;58.77;11.00;;;0.30;99.90;;;;;;5046097;28;20210;-51
2023/03/03 07:37:13;;;;;;;41.63;10.57;;;0.30;99.90;;;;;;5052546;28;20318;-51
2023/03/03 07:39:44;;;;;;;53.07;11.13;;;0.30;99.90;;;;;;5045556;28;20208;-52
2023/03/03 07:42:20;;;;;;;58.47;10.17;;;0.40;99.90;;;;;;5053691;28;20216;-46
2023/03/03 07:44:56;;;;;;;83.57;11.50;;;0.40;99.90;;;;;;5030772;28;20706;-52
2023/03/03 07:47:25;;;;;;;56.10;11.20;;;0.40;99.90;;;;;;5034045;28;20578;-51
2023/03/03 07:50:18;;;;;;;47.33;9.60;;;0.50;99.90;;;;;;5042065;28;20224;-51
2023/03/03 07:52:55;;;;;;;61.00;9.83;;;0.50;99.90;;;;;;5042321;28;20230;-52
2023/03/03 07:55:30;;;;;;;34.17;10.27;;;0.50;99.90;;;;;;5049254;28;20284;-51
2023/03/03 07:58:05;;;;;;;30.73;10.10;;;0.60;99.90;;;;;;5054126;28;20200;-51
2023/03/03 08:01:12;;;;;;;47.07;9.83;;;0.60;99.90;;;;;;5047741;28;20228;-50
2023/03/03 08:03:58;;;;;;;32.60;8.93;;;0.70;99.90;;;;;;5036035;28;20273;-52
2023/03/03 08:06:36;;;;;;;52.73;10.53;;;0.70;99.90;;;;;;5044192;28;20194;-49
2023/03/03 08:09:27;;;;;;;36.20;9.77;;;0.70;99.90;;;;;;5040267;28;20322;-49
2023/03/03 08:12:00;;;;;;;43.40;10.43;;;0.70;99.90;;;;;;5043569;28;20533;-54
2023/03/03 08:14:30;;;;;;;44.20;9.77;;;0.80;99.90;;;;;;5052774;28;20201;-47
2023/03/03 08:16:57;;;;;;;47.00;9.37;;;0.80;99.90;;;;;;5037090;28;20201;-54
2023/03/03 08:19:25;;;;;;;49.57;11.40;;;0.80;99.90;;;;;;5048417;28;20560;-48
2023/03/03 08:21:53;;;;;;;66.03;11.40;;;0.80;99.90;;;;;;5044495;28;20221;-53
2023/03/03 08:24:20;;;;;;;51.23;10.67;;;0.90;99.90;;;;;;5043906;28;20196;-47
2023/03/03 08:26:47;;;;;;;57.67;11.07;;;0.90;99.90;;;;;;5050385;28;20212;-52
2023/03/03 08:29:15;;;;;;;44.73;10.23;;;1.00;99.90;;;;;;5044667;28;20218;-52
2023/03/03 08:31:41;;;;;;;47.50;11.47;;;1.10;99.90;;;;;;5047803;28;20253;-50
2023/03/03 08:34:08;;;;;;;48.63;11.57;;;1.10;99.90;;;;;;5041564;28;20919;-49
2023/03/03 08:36:35;;;;;;;38.93;11.97;;;1.20;99.90;;;;;;5041903;28;20295;-48
2023/03/03 08:39:02;;;;;;;48.67;11.27;;;1.20;99.90;;;;;;5039204;28;20214;-48
2023/03/03 08:41:29;;;;;;;47.00;10.03;;;1.30;99.90;;;;;;5051976;28;20221;-48
2023/03/03 08:43:56;;;;;;;34.87;9.23;;;1.30;99.90;;;;;;5047022;28;20279;-51
2023/03/03 08:46:24;;;;;;;40.30;10.10;;;1.30;99.90;;;;;;5049996;28;20205;-49
2023/03/03 08:48:51;;;;;;;26.37;8.63;;;1.30;99.90;;;;;;5038684;28;20218;-55
2023/03/03 08:51:18;;;;;;;32.50;8.43;;;1.30;99.90;;;;;;5039579;28;20245;-50
2023/03/03 08:53:44;;;;;;;30.87;8.77;;;1.30;99.90;;;;;;5047391;28;20219;-54
2023/03/03 08:56:11;;;;;;;36.63;11.23;;;1.40;99.90;;;;;;5040181;28;20447;-51
2023/03/03 08:58:40;;;;;;;30.87;9.73;;;1.40;99.90;;;;;;5050251;28;20252;-50
2023/03/03 09:01:07;;;;;;;21.90;7.93;;;1.50;99.90;;;;;;5048291;28;20191;-47
2023/03/03 09:03:35;;;;;;;32.47;8.93;;;1.60;99.90;;;;;;5044593;28;20323;-47
2023/03/03 09:06:02;;;;;;;31.90;7.80;;;1.50;99.90;;;;;;5033837;28;20201;-47
2023/03/03 09:08:29;;;;;;;25.47;7.13;;;1.60;99.90;;;;;;5045984;28;20263;-48
2023/03/03 09:10:55;;;;;;;30.47;7.53;;;1.60;99.90;;;;;;5040586;28;20222;-54
2023/03/03 09:13:22;;;;;;;25.60;7.77;;;1.60;99.90;;;;;;5048470;28;20194;-50
2023/03/03 09:15:49;;;;;;;28.97;7.97;;;1.70;99.90;;;;;;5046469;28;20289;-55
2023/03/03 09:18:21;;;;;;;22.27;7.37;;;1.70;99.90;;;;;;5045151;28;20191;-47
2023/03/03 09:20:50;;;;;;;32.83;7.60;;;1.80;99.90;;;;;;5038214;28;20284;-52
2023/03/03 09:23:32;;;;;;;35.97;7.63;;;1.90;99.90;;;;;;5041146;28;20559;-47
2023/03/03 09:26:38;;;;;;;27.70;7.00;;;1.90;99.90;;;;;;5036662;28;20826;-51
2023/03/03 09:29:18;;;;;;;37.70;10.77;;;2.00;99.90;;;;;;5042217;28;20214;-49
2023/03/03 09:31:49;;;;;;;37.70;6.60;;;2.10;99.90;;;;;;5049367;28;20225;-55
2023/03/03 09:34:23;;;;;;;23.40;5.90;;;2.00;99.90;;;;;;5044373;28;20205;-52
2023/03/03 09:36:51;;;;;;;19.23;5.57;;;2.10;99.90;;;;;;5031312;28;20287;-50
2023/03/03 09:39:20;;;;;;;34.93;8.23;;;2.00;99.90;;;;;;5052578;28;20201;-52
2023/03/03 09:42:04;;;;;;;28.30;6.70;;;2.10;99.90;;;;;;5039154;28;20242;-55
2023/03/03 09:45:09;;;;;;;22.20;6.27;;;2.20;99.90;;;;;;5049302;28;20199;-47
2023/03/03 09:47:47;;;;;;;51.30;10.20;;;2.40;99.90;;;;;;5035173;28;20508;-49
2023/03/03 09:50:28;;;;;;;33.67;7.87;;;2.50;99.90;;;;;;5052834;28;20288;-47
2023/03/03 09:53:09;;;;;;;19.93;5.90;;;2.50;99.90;;;;;;5037473;28;20237;-52
2023/03/03 09:55:44;;;;;;;28.20;6.20;;;2.50;99.90;;;;;;5048721;28;20202;-49
2023/03/03 09:58:31;;;;;;;14.93;6.43;;;2.40;99.90;;;;;;5041603;28;20958;-48
2023/03/03 10:01:13;;;;;;;45.83;12.33;;;2.50;99.90;;;;;;5048593;28;20770;-47
2023/03/03 10:03:53;;;;;;;21.40;7.87;;;2.60;99.90;;;;;;5050093;28;20201;-51
2023/03/03 10:06:27;;;;;;;27.23;7.77;;;2.70;99.90;;;;;;5047842;28;20213;-47
2023/03/03 10:09:08;;;;;;;27.00;7.80;;;2.90;99.90;;;;;;5042038;28;20214;-54
2023/03/03 10:11:44;;;;;;;22.97;7.50;;;2.90;99.90;;;;;;5055369;28;20223;-48
2023/03/03 10:14:36;;;;;;;37.40;11.70;;;2.90;99.90;;;;;;5049690;28;20221;-49
2023/03/03 10:17:19;;;;;;;14.43;8.37;;;3.00;99.90;;;;;;5046699;28;20333;-48
2023/03/03 10:19:52;;;;;;;40.87;13.00;;;2.90;99.90;;;;;;5050769;28;20225;-53
2023/03/03 10:22:24;;;;;;;37.30;11.17;;;3.00;99.90;;;;;;5045332;28;20298;-53
2023/03/03 10:25:03;;;;;;;31.33;10.70;;;3.00;99.90;;;;;;5037110;28;20219;-51
2023/03/03 10:27:47;;;;;;;17.57;8.00;;;3.10;99.90;;;;;;5042495;28;20207;-53
2023/03/03 10:30:20;;;;;;;14.90;6.80;;;3.20;99.90;;;;;;5046564;28;20309;-50
2023/03/03 10:32:54;;;;;;;11.57;6.80;;;3.10;99.90;;;;;;5042941;28;20215;-47
2023/03/03 10:35:38;;;;;;;16.50;6.60;;;3.20;99.90;;;;;;5050881;28;20211;-53
2023/03/03 10:38:33;;;;;;;20.27;8.67;;;3.20;99.90;;;;;;5058049;28;20202;-49
2023/03/03 10:41:13;;;;;;;10.97;6.67;;;3.40;99.90;;;;;;5047253;28;20677;-47
2023/03/03 10:43:51;;;;;;;11.53;6.90;;;3.30;99.90;;;;;;5042905;28;20211;-49
2023/03/03 10:46:38;;;;;;;11.20;6.63;;;3.30;99.90;;;;;;5058382;28;20221;-52
2023/03/03 10:49:19;;;;;;;11.00;7.20;;;3.40;99.90;;;;;;5051372;28;20594;-48
2023/03/03 10:52:02;;;;;;;14.00;7.27;;;3.40;99.90;;;;;;5044724;28;20219;-50
2023/03/03 10:54:47;;;;;;;19.20;7.80;;;3.40;99.90;;;;;;5034836;28;20214;-54
2023/03/03 10:57:22;;;;;;;13.70;8.33;;;3.40;99.90;;;;;;5052554;28;20199;-51
2023/03/03 11:00:01;;;;;;;13.03;9.13;;;3.40;99.90;;;;;;5046612;28;20882;-47
2023/03/03 11:02:38;;;;;;;12.97;8.20;;;3.40;99.90;;;;;;5040204;28;20314;-54
2023/03/03 11:05:35;;;;;;;12.47;8.23;;;3.50;99.90;;;;;;5045837;28;20203;-47
2023/03/03 11:08:07;;;;;;;15.33;9.10;;;3.50;99.90;;;;;;5046881;28;20227;-52
2023/03/03 11:10:54;;;;;;;13.70;9.00;;;3.50;99.90;;;;;;5037157;28;20943;-47
2023/03/03 11:13:28;;;;;;;16.97;10.13;;;3.50;99.90;;;;;;5036214;28;20449;-47
2023/03/03 11:16:16;;;;;;;17.10;10.63;;;3.60;99.90;;;;;;5054214;28;20203;-51
2023/03/03 11:19:00;;;;;;;18.03;11.00;;;3.70;99.90;;;;;;5046491;28;20567;-48
2023/03/03 11:21:34;;;;;;;19.53;11.33;;;3.80;99.90;;;;;;5041516;28;21851;-47
2023/03/03 11:24:17;;;;;;;22.67;12.50;;;3.70;99.90;;;;;;5047442;28;20247;-53
2023/03/03 11:27:06;;;;;;;21.43;13.07;;;3.80;99.90;;;;;;5051544;28;20286;-46
2023/03/03 11:29:49;;;;;;;23.63;12.43;;;3.80;99.90;;;;;;5039583;28;20288;-51
2023/03/03 11:32:24;;;;;;;21.83;12.27;;;3.90;99.90;;;;;;5048055;28;20206;-54
2023/03/03 11:35:05;;;;;;;16.50;11.40;;;3.90;99.90;;;;;;5054145;28;20195;-51
2023/03/03 11:37:43;;;;;;;20.20;11.50;;;3.90;99.90;;;;;;5045901;28;22847;-50
2023/03/03 11:40:16;;;;;;;20.10;11.30;;;3.90;99.90;;;;;;5039409;28;20194;-55
2023/03/03 11:42:55;;;;;;;19.17;10.87;;;4.00;99.90;;;;;;5050951;28;20299;-51
2023/03/03 11:45:26;;;;;;;20.07;10.07;;;4.10;99.90;;;;;;5044136;28;20190;-50
2023/03/03 11:47:59;;;;;;;26.47;12.10;;;4.10;99.90;;;;;;5051476;28;20929;-48
2023/03/03 11:50:31;;;;;;;14.40;9.03;;;4.10;99.90;;;;;;5046262;28;20245;-51
2023/03/03 11:53:16;;;;;;;20.20;9.87;;;4.10;99.90;;;;;;5043372;28;20762;-54
2023/03/03 11:55:49;;;;;;;16.93;10.00;;;4.10;99.90;;;;;;5049025;28;20260;-48
2023/03/03 11:58:22;;;;;;;14.17;9.03;;;4.20;99.90;;;;;;5030223;28;20219;-50
2023/03/03 12:00:54;;;;;;;18.47;9.33;;;4.20;99.90;;;;;;5044731;28;20800;-50
2023/03/03 12:03:28;;;;;;;17.23;9.77;;;4.30;99.90;;;;;;5054192;28;20268;-49
2023/03/03 12:06:04;;;;;;;16.87;10.00;;;4.40;99.90;;;;;;5046569;28;20223;-53
2023/03/03 12:08:46;;;;;;;15.93;9.43;;;4.40;99.90;;;;;;5052744;28;20202;-46
2023/03/03 12:11:21;;;;;;;17.10;9.40;;;4.50;99.90;;;;;;5040727;28;21188;-48
2023/03/03 12:13:54;;;;;;;18.37;9.77;;;4.60;99.90;;;;;;5029143;28;20260;-51
2023/03/03 12:16:31;;;;;;;14.10;9.03;;;4.60;99.90;;;;;;5048154;28;20290;-46
2023/03/03 12:19:28;;;;;;;15.23;8.97;;;4.70;99.90;;;;;;5046401;28;20222;-54
2023/03/03 12:22:07;;;;;;;15.60;8.67;;;4.80;99.90;;;;;;5044153;28;20219;-54
2023/03/03 12:24:57;;;;;;;25.83;10.03;;;5.00;99.90;;;;;;5052270;28;20285;-53
2023/03/03 12:27:31;;;;;;;16.83;9.30;;;5.10;99.90;;;;;;5047437;28;20234;-51
2023/03/03 12:30:06;;;;;;;18.10;9.03;;;5.20;99.90;;;;;;5030428;28;20924;-55
2023/03/03 12:32:49;;;;;;;11.07;8.13;;;5.30;99.90;;;;;;5044081;28;20344;-47
2023/03/03 12:35:24;;;;;;;13.63;7.80;;;5.30;99.90;;;;;;5053936;28;21050;-51
2023/03/03 12:37:57;;;;;;;15.73;8.10;;;5.40;99.90;;;;;;5053188;28;20217;-55
2023/03/03 12:40:30;;;;;;;11.77;7.53;;;5.40;99.90;;;;;;5045900;28;20214;-52
2023/03/03 12:43:10;;;;;;;12.87;7.20;;;5.40;99.90;;;;;;5043341;28;20222;-52
2023/03/03 12:45:46;;;;;;;12.80;6.53;;;5.40;99.90;;;;;;5028518;28;20344;-48
2023/03/03 12:48:40;;;;;;;9.33;6.73;;;5.40;99.90;;;;;;5044911;28;20577;-48
2023/03/03 12:51:17;;;;;;;9.90;7.23;;;5.40;99.90;;;;;;5040856;28;20219;-52
2023/03/03 12:54:17;;;;;;;12.63;6.40;;;5.40;99.90;;;;;;5062645;28;20247;-46
2023/03/03 12:56:53;;;;;;;11.97;5.80;;;5.50;99.90;;;;;;5034260;28;20210;-50
2023/03/03 12:59:30;;;;;;;12.27;5.10;;;5.50;99.90;;;;;;5029598;28;23557;-51
2023/03/03 13:02:29;;;;;;;11.20;4.60;;;5.50;99.90;;;;;;5039612;28;20223;-54
2023/03/03 13:05:05;;;;;;;7.07;4.00;;;5.60;99.90;;;;;;5038152;28;20210;-53
2023/03/03 13:07:41;;;;;;;7.50;4.60;;;5.60;99.90;;;;;;5057201;28;20289;-52
2023/03/03 13:10:16;;;;;;;8.23;3.80;;;5.70;99.90;;;;;;5043999;28;20240;-49